sensor_id;sensor_type;location;lat;lon;timestamp;P1;durP1;ratioP1;P2;durP2;ratioP2
47539;SDS011;33280;52.152;21.052;2023-08-01T06:17:56;5.47;;;2.60;;
47539;SDS011;33280;52.152;21.052;2023-08-01T06:31:59;6.90;;;2.73;;
47539;SDS011;33280;52.152;21.052;2023-08-01T06:35:51;6.43;;;2.73;;
47539;SDS011;33280;52.152;21.052;2023-08-01T06:39:31;4.57;;;2.40;;
47539;SDS011;33280;52.152;21.052;2023-08-01T06:42:51;8.53;;;2.80;;
47539;SDS011;33280;52.152;21.052;2023-08-01T06:45:34;6.17;;;2.67;;
47539;SDS011;33280;52.152;21.052;2023-08-01T06:48:29;5.00;;;2.60;;
47539;SDS011;33280;52.152;21.052;2023-08-01T06:54:38;6.77;;;2.70;;
47539;SDS011;33280;52.152;21.052;2023-08-01T06:57:52;6.27;;;2.70;;
47539;SDS011;33280;52.152;21.052;2023-08-01T07:00:51;4.87;;;2.50;;
47539;SDS011;33280;52.152;21.052;2023-08-01T07:12:18;6.97;;;2.87;;
47539;SDS011;33280;52.152;21.052;2023-08-01T07:34:21;6.17;;;3.17;;
47539;SDS011;33280;52.152;21.052;2023-08-01T07:38:15;5.07;;;2.97;;
47539;SDS011;33280;52.152;21.052;2023-08-01T07:41:38;4.93;;;3.00;;
47539;SDS011;33280;52.152;21.052;2023-08-01T07:52:52;5.80;;;3.13;;
47539;SDS011;33280;52.152;21.052;2023-08-01T07:55:58;7.28;;;3.47;;
47539;SDS011;33280;52.152;21.052;2023-08-01T08:02:53;6.40;;;3.70;;
47539;SDS011;33280;52.152;21.052;2023-08-01T08:06:50;5.05;;;3.25;;
47539;SDS011;33280;52.152;21.052;2023-08-01T08:10:04;5.10;;;3.40;;
47539;SDS011;33280;52.152;21.052;2023-08-01T08:16:16;4.50;;;3.17;;
47539;SDS011;33280;52.152;21.052;2023-08-01T08:25:32;5.53;;;3.38;;
47539;SDS011;33280;52.152;21.052;2023-08-01T08:28:28;5.10;;;3.25;;
47539;SDS011;33280;52.152;21.052;2023-08-01T08:31:10;4.85;;;3.50;;
47539;SDS011;33280;52.152;21.052;2023-08-01T08:33:37;6.75;;;3.45;;
47539;SDS011;33280;52.152;21.052;2023-08-01T08:36:12;5.80;;;3.17;;
47539;SDS011;33280;52.152;21.052;2023-08-01T08:39:17;6.10;;;3.40;;
47539;SDS011;33280;52.152;21.052;2023-08-01T08:42:11;5.35;;;3.25;;
47539;SDS011;33280;52.152;21.052;2023-08-01T08:44:42;6.63;;;3.70;;
47539;SDS011;33280;52.152;21.052;2023-08-01T08:47:27;4.95;;;3.58;;
47539;SDS011;33280;52.152;21.052;2023-08-01T08:50:25;4.88;;;3.15;;
47539;SDS011;33280;52.152;21.052;2023-08-01T08:52:56;5.38;;;3.50;;
47539;SDS011;33280;52.152;21.052;2023-08-01T08:55:59;4.93;;;3.38;;
47539;SDS011;33280;52.152;21.052;2023-08-01T08:58:37;4.22;;;3.30;;
47539;SDS011;33280;52.152;21.052;2023-08-01T09:01:05;8.90;;;3.65;;
47539;SDS011;33280;52.152;21.052;2023-08-01T09:03:43;6.20;;;3.15;;
47539;SDS011;33280;52.152;21.052;2023-08-01T09:06:17;5.35;;;3.30;;
47539;SDS011;33280;52.152;21.052;2023-08-01T09:09:10;5.18;;;3.10;;
47539;SDS011;33280;52.152;21.052;2023-08-01T09:12:00;5.65;;;3.20;;
47539;SDS011;33280;52.152;21.052;2023-08-01T09:14:27;8.50;;;3.40;;
47539;SDS011;33280;52.152;21.052;2023-08-01T09:17:08;4.47;;;3.20;;
47539;SDS011;33280;52.152;21.052;2023-08-01T09:19:41;7.50;;;3.22;;
47539;SDS011;33280;52.152;21.052;2023-08-01T09:22:12;7.13;;;3.20;;
47539;SDS011;33280;52.152;21.052;2023-08-01T09:24:50;7.63;;;2.83;;
47539;SDS011;33280;52.152;21.052;2023-08-01T09:27:32;6.28;;;2.90;;
47539;SDS011;33280;52.152;21.052;2023-08-01T09:30:18;5.53;;;3.10;;
47539;SDS011;33280;52.152;21.052;2023-08-01T09:33:19;8.05;;;3.20;;
47539;SDS011;33280;52.152;21.052;2023-08-01T09:35:42;5.97;;;3.05;;
47539;SDS011;33280;52.152;21.052;2023-08-01T09:38:16;4.28;;;2.75;;
47539;SDS011;33280;52.152;21.052;2023-08-01T09:40:55;4.82;;;2.83;;
47539;SDS011;33280;52.152;21.052;2023-08-01T09:43:44;4.53;;;2.85;;
47539;SDS011;33280;52.152;21.052;2023-08-01T09:46:15;5.77;;;3.00;;
47539;SDS011;33280;52.152;21.052;2023-08-01T09:48:42;4.57;;;2.97;;
47539;SDS011;33280;52.152;21.052;2023-08-01T09:51:10;6.22;;;2.70;;
47539;SDS011;33280;52.152;21.052;2023-08-01T09:53:55;4.35;;;2.60;;
47539;SDS011;33280;52.152;21.052;2023-08-01T09:56:26;4.10;;;2.92;;
47539;SDS011;33280;52.152;21.052;2023-08-01T09:58:55;5.38;;;3.00;;
47539;SDS011;33280;52.152;21.052;2023-08-01T10:01:23;4.93;;;2.97;;
47539;SDS011;33280;52.152;21.052;2023-08-01T10:03:54;5.38;;;2.85;;
47539;SDS011;33280;52.152;21.052;2023-08-01T10:06:24;4.53;;;2.88;;
47539;SDS011;33280;52.152;21.052;2023-08-01T10:08:55;8.70;;;3.03;;
47539;SDS011;33280;52.152;21.052;2023-08-01T10:11:22;7.00;;;2.95;;
47539;SDS011;33280;52.152;21.052;2023-08-01T10:13:49;4.32;;;2.97;;
47539;SDS011;33280;52.152;21.052;2023-08-01T10:16:17;6.28;;;3.22;;
47539;SDS011;33280;52.152;21.052;2023-08-01T10:18:49;10.93;;;3.10;;
47539;SDS011;33280;52.152;21.052;2023-08-01T10:21:17;4.82;;;2.85;;
47539;SDS011;33280;52.152;21.052;2023-08-01T10:23:47;5.93;;;3.10;;
47539;SDS011;33280;52.152;21.052;2023-08-01T10:26:21;6.32;;;2.92;;
47539;SDS011;33280;52.152;21.052;2023-08-01T10:29:02;5.07;;;3.10;;
47539;SDS011;33280;52.152;21.052;2023-08-01T10:31:29;6.30;;;3.30;;
47539;SDS011;33280;52.152;21.052;2023-08-01T10:34:19;5.97;;;2.97;;
47539;SDS011;33280;52.152;21.052;2023-08-01T10:37:03;8.07;;;3.37;;
47539;SDS011;33280;52.152;21.052;2023-08-01T10:39:31;4.90;;;3.57;;
47539;SDS011;33280;52.152;21.052;2023-08-01T10:42:05;5.80;;;3.17;;
47539;SDS011;33280;52.152;21.052;2023-08-01T10:44:44;5.53;;;3.53;;
47539;SDS011;33280;52.152;21.052;2023-08-01T10:47:12;7.35;;;3.33;;
47539;SDS011;33280;52.152;21.052;2023-08-01T10:49:43;6.30;;;3.53;;
47539;SDS011;33280;52.152;21.052;2023-08-01T10:52:21;4.27;;;3.03;;
47539;SDS011;33280;52.152;21.052;2023-08-01T10:55:00;9.93;;;3.90;;
47539;SDS011;33280;52.152;21.052;2023-08-01T10:57:28;4.20;;;3.13;;
47539;SDS011;33280;52.152;21.052;2023-08-01T11:00:03;8.30;;;3.43;;
47539;SDS011;33280;52.152;21.052;2023-08-01T11:02:36;7.50;;;3.53;;
47539;SDS011;33280;52.152;21.052;2023-08-01T11:05:05;10.27;;;3.53;;
47539;SDS011;33280;52.152;21.052;2023-08-01T11:07:37;6.13;;;3.50;;
47539;SDS011;33280;52.152;21.052;2023-08-01T11:12:35;4.47;;;3.47;;
47539;SDS011;33280;52.152;21.052;2023-08-01T11:15:07;5.77;;;3.70;;
47539;SDS011;33280;52.152;21.052;2023-08-01T11:17:36;4.67;;;3.43;;
47539;SDS011;33280;52.152;21.052;2023-08-01T11:20:04;5.70;;;3.50;;
47539;SDS011;33280;52.152;21.052;2023-08-01T11:22:34;6.67;;;3.53;;
47539;SDS011;33280;52.152;21.052;2023-08-01T11:25:02;6.07;;;3.70;;
47539;SDS011;33280;52.152;21.052;2023-08-01T11:27:29;6.97;;;3.60;;
47539;SDS011;33280;52.152;21.052;2023-08-01T11:29:57;5.70;;;3.50;;
47539;SDS011;33280;52.152;21.052;2023-08-01T11:32:34;8.67;;;3.43;;
47539;SDS011;33280;52.152;21.052;2023-08-01T11:35:03;7.97;;;4.07;;
47539;SDS011;33280;52.152;21.052;2023-08-01T11:37:31;6.73;;;3.90;;
47539;SDS011;33280;52.152;21.052;2023-08-01T11:39:59;7.43;;;4.00;;
47539;SDS011;33280;52.152;21.052;2023-08-01T11:42:30;5.93;;;3.93;;
47539;SDS011;33280;52.152;21.052;2023-08-01T11:45:11;6.63;;;3.50;;
47539;SDS011;33280;52.152;21.052;2023-08-01T11:47:45;6.07;;;3.70;;
47539;SDS011;33280;52.152;21.052;2023-08-01T11:50:21;4.50;;;3.60;;
47539;SDS011;33280;52.152;21.052;2023-08-01T11:52:49;7.70;;;3.80;;
47539;SDS011;33280;52.152;21.052;2023-08-01T11:55:20;7.60;;;4.17;;
47539;SDS011;33280;52.152;21.052;2023-08-01T11:57:54;6.37;;;3.70;;
47539;SDS011;33280;52.152;21.052;2023-08-01T12:00:26;6.33;;;4.00;;
47539;SDS011;33280;52.152;21.052;2023-08-01T12:03:07;8.47;;;3.80;;
47539;SDS011;33280;52.152;21.052;2023-08-01T12:05:40;7.30;;;3.57;;
47539;SDS011;33280;52.152;21.052;2023-08-01T12:08:14;11.83;;;3.80;;
47539;SDS011;33280;52.152;21.052;2023-08-01T12:10:43;10.70;;;3.97;;
47539;SDS011;33280;52.152;21.052;2023-08-01T12:15:50;6.50;;;3.60;;
47539;SDS011;33280;52.152;21.052;2023-08-01T12:18:22;6.37;;;3.83;;
47539;SDS011;33280;52.152;21.052;2023-08-01T12:20:56;6.13;;;3.63;;
47539;SDS011;33280;52.152;21.052;2023-08-01T12:23:23;4.93;;;3.40;;
47539;SDS011;33280;52.152;21.052;2023-08-01T12:25:51;4.90;;;3.50;;
47539;SDS011;33280;52.152;21.052;2023-08-01T12:28:18;6.00;;;3.20;;
47539;SDS011;33280;52.152;21.052;2023-08-01T12:30:45;4.70;;;3.23;;
47539;SDS011;33280;52.152;21.052;2023-08-01T12:33:12;4.97;;;3.42;;
47539;SDS011;33280;52.152;21.052;2023-08-01T12:35:40;4.53;;;3.30;;
47539;SDS011;33280;52.152;21.052;2023-08-01T12:38:08;5.40;;;3.57;;
47539;SDS011;33280;52.152;21.052;2023-08-01T12:40:36;5.17;;;3.20;;
47539;SDS011;33280;52.152;21.052;2023-08-01T12:43:03;4.85;;;3.05;;
47539;SDS011;33280;52.152;21.052;2023-08-01T12:45:30;6.20;;;3.50;;
47539;SDS011;33280;52.152;21.052;2023-08-01T12:47:57;4.83;;;3.50;;
47539;SDS011;33280;52.152;21.052;2023-08-01T12:50:25;7.97;;;3.80;;
47539;SDS011;33280;52.152;21.052;2023-08-01T12:52:52;5.78;;;3.85;;
47539;SDS011;33280;52.152;21.052;2023-08-01T12:55:19;5.70;;;3.23;;
47539;SDS011;33280;52.152;21.052;2023-08-01T12:57:47;5.20;;;3.40;;
47539;SDS011;33280;52.152;21.052;2023-08-01T13:00:14;5.87;;;3.33;;
47539;SDS011;33280;52.152;21.052;2023-08-01T13:02:41;4.00;;;3.07;;
47539;SDS011;33280;52.152;21.052;2023-08-01T13:05:08;5.97;;;3.33;;
47539;SDS011;33280;52.152;21.052;2023-08-01T13:07:36;5.57;;;3.23;;
47539;SDS011;33280;52.152;21.052;2023-08-01T13:10:06;4.67;;;3.43;;
47539;SDS011;33280;52.152;21.052;2023-08-01T13:12:33;7.30;;;3.60;;
47539;SDS011;33280;52.152;21.052;2023-08-01T13:15:08;6.47;;;3.33;;
47539;SDS011;33280;52.152;21.052;2023-08-01T13:17:43;5.25;;;3.33;;
47539;SDS011;33280;52.152;21.052;2023-08-01T13:20:11;5.95;;;3.53;;
47539;SDS011;33280;52.152;21.052;2023-08-01T13:22:39;5.00;;;3.58;;
47539;SDS011;33280;52.152;21.052;2023-08-01T13:25:06;5.63;;;3.20;;
47539;SDS011;33280;52.152;21.052;2023-08-01T13:27:34;5.13;;;3.33;;
47539;SDS011;33280;52.152;21.052;2023-08-01T13:30:02;4.45;;;3.25;;
47539;SDS011;33280;52.152;21.052;2023-08-01T13:32:32;6.65;;;3.63;;
47539;SDS011;33280;52.152;21.052;2023-08-01T13:34:59;6.70;;;3.55;;
47539;SDS011;33280;52.152;21.052;2023-08-01T13:37:26;5.72;;;3.80;;
47539;SDS011;33280;52.152;21.052;2023-08-01T13:39:56;5.78;;;3.67;;
47539;SDS011;33280;52.152;21.052;2023-08-01T13:42:25;5.80;;;3.67;;
47539;SDS011;33280;52.152;21.052;2023-08-01T13:44:56;5.05;;;3.40;;
47539;SDS011;33280;52.152;21.052;2023-08-01T13:47:23;5.23;;;3.47;;
47539;SDS011;33280;52.152;21.052;2023-08-01T13:49:51;5.88;;;3.33;;
47539;SDS011;33280;52.152;21.052;2023-08-01T13:52:18;8.55;;;3.90;;
47539;SDS011;33280;52.152;21.052;2023-08-01T13:54:45;5.95;;;3.45;;
47539;SDS011;33280;52.152;21.052;2023-08-01T13:57:13;6.65;;;3.70;;
47539;SDS011;33280;52.152;21.052;2023-08-01T13:59:41;8.60;;;3.70;;
47539;SDS011;33280;52.152;21.052;2023-08-01T14:02:10;7.53;;;3.80;;
47539;SDS011;33280;52.152;21.052;2023-08-01T14:04:37;6.27;;;3.67;;
47539;SDS011;33280;52.152;21.052;2023-08-01T14:07:05;6.07;;;3.60;;
47539;SDS011;33280;52.152;21.052;2023-08-01T14:09:33;7.53;;;3.77;;
47539;SDS011;33280;52.152;21.052;2023-08-01T14:12:03;5.30;;;3.47;;
47539;SDS011;33280;52.152;21.052;2023-08-01T14:14:32;6.17;;;3.57;;
47539;SDS011;33280;52.152;21.052;2023-08-01T14:16:59;5.17;;;3.60;;
47539;SDS011;33280;52.152;21.052;2023-08-01T14:19:26;5.37;;;3.70;;
47539;SDS011;33280;52.152;21.052;2023-08-01T14:21:56;6.10;;;3.70;;
47539;SDS011;33280;52.152;21.052;2023-08-01T14:24:24;5.00;;;3.67;;
47539;SDS011;33280;52.152;21.052;2023-08-01T14:26:51;6.07;;;3.80;;
47539;SDS011;33280;52.152;21.052;2023-08-01T14:29:18;5.20;;;3.80;;
47539;SDS011;33280;52.152;21.052;2023-08-01T14:31:49;5.77;;;3.90;;
47539;SDS011;33280;52.152;21.052;2023-08-01T14:34:16;5.53;;;3.93;;
47539;SDS011;33280;52.152;21.052;2023-08-01T14:36:44;6.23;;;3.73;;
47539;SDS011;33280;52.152;21.052;2023-08-01T14:39:11;5.30;;;3.83;;
47539;SDS011;33280;52.152;21.052;2023-08-01T14:41:49;6.20;;;4.00;;
47539;SDS011;33280;52.152;21.052;2023-08-01T14:44:19;7.30;;;4.13;;
47539;SDS011;33280;52.152;21.052;2023-08-01T14:46:47;5.13;;;3.63;;
47539;SDS011;33280;52.152;21.052;2023-08-01T14:49:15;5.77;;;3.97;;
47539;SDS011;33280;52.152;21.052;2023-08-01T14:51:42;9.57;;;4.10;;
47539;SDS011;33280;52.152;21.052;2023-08-01T14:54:10;6.30;;;4.00;;
47539;SDS011;33280;52.152;21.052;2023-08-01T14:56:39;6.33;;;4.47;;
47539;SDS011;33280;52.152;21.052;2023-08-01T14:59:07;7.13;;;5.20;;
47539;SDS011;33280;52.152;21.052;2023-08-01T15:01:34;7.77;;;4.70;;
47539;SDS011;33280;52.152;21.052;2023-08-01T15:04:01;8.37;;;5.10;;
47539;SDS011;33280;52.152;21.052;2023-08-01T15:06:28;7.20;;;5.23;;
47539;SDS011;33280;52.152;21.052;2023-08-01T15:08:55;10.87;;;5.73;;
47539;SDS011;33280;52.152;21.052;2023-08-01T15:11:22;8.50;;;6.17;;
47539;SDS011;33280;52.152;21.052;2023-08-01T15:13:49;10.90;;;6.90;;
47539;SDS011;33280;52.152;21.052;2023-08-01T15:16:16;12.17;;;6.60;;
47539;SDS011;33280;52.152;21.052;2023-08-01T15:18:44;9.50;;;5.90;;
47539;SDS011;33280;52.152;21.052;2023-08-01T15:21:11;9.23;;;6.67;;
47539;SDS011;33280;52.152;21.052;2023-08-01T15:23:39;11.57;;;7.13;;
47539;SDS011;33280;52.152;21.052;2023-08-01T15:26:06;10.67;;;6.53;;
47539;SDS011;33280;52.152;21.052;2023-08-01T15:28:33;10.50;;;6.47;;
47539;SDS011;33280;52.152;21.052;2023-08-01T15:31:06;10.10;;;6.60;;
47539;SDS011;33280;52.152;21.052;2023-08-01T15:33:35;9.57;;;6.60;;
47539;SDS011;33280;52.152;21.052;2023-08-01T15:36:05;13.57;;;7.50;;
47539;SDS011;33280;52.152;21.052;2023-08-01T15:38:34;9.80;;;6.90;;
47539;SDS011;33280;52.152;21.052;2023-08-01T15:41:03;9.33;;;6.50;;
47539;SDS011;33280;52.152;21.052;2023-08-01T15:43:38;9.47;;;6.27;;
47539;SDS011;33280;52.152;21.052;2023-08-01T15:46:09;9.73;;;6.13;;
47539;SDS011;33280;52.152;21.052;2023-08-01T15:48:36;9.17;;;5.60;;
47539;SDS011;33280;52.152;21.052;2023-08-01T15:51:05;9.27;;;6.30;;
47539;SDS011;33280;52.152;21.052;2023-08-01T15:53:32;8.97;;;5.90;;
47539;SDS011;33280;52.152;21.052;2023-08-01T15:56:01;9.00;;;6.00;;
47539;SDS011;33280;52.152;21.052;2023-08-01T15:58:30;7.50;;;5.00;;
47539;SDS011;33280;52.152;21.052;2023-08-01T17:14:21;6.17;;;3.80;;
47539;SDS011;33280;52.152;21.052;2023-08-01T17:16:48;4.70;;;3.70;;
47539;SDS011;33280;52.152;21.052;2023-08-01T17:19:15;6.13;;;3.43;;
47539;SDS011;33280;52.152;21.052;2023-08-01T17:21:43;5.90;;;3.30;;
47539;SDS011;33280;52.152;21.052;2023-08-01T17:24:10;6.17;;;3.50;;
47539;SDS011;33280;52.152;21.052;2023-08-01T17:26:38;4.63;;;3.50;;
47539;SDS011;33280;52.152;21.052;2023-08-01T17:29:06;6.63;;;3.63;;
47539;SDS011;33280;52.152;21.052;2023-08-01T17:31:33;5.20;;;3.60;;
47539;SDS011;33280;52.152;21.052;2023-08-01T17:34:01;4.73;;;3.37;;
47539;SDS011;33280;52.152;21.052;2023-08-01T17:36:29;6.60;;;3.70;;
47539;SDS011;33280;52.152;21.052;2023-08-01T17:38:56;8.07;;;3.70;;
47539;SDS011;33280;52.152;21.052;2023-08-01T17:41:25;6.73;;;3.87;;
47539;SDS011;33280;52.152;21.052;2023-08-01T17:43:54;5.40;;;3.50;;
47539;SDS011;33280;52.152;21.052;2023-08-01T17:46:32;6.93;;;3.60;;
47539;SDS011;33280;52.152;21.052;2023-08-01T17:48:59;4.83;;;3.80;;
47539;SDS011;33280;52.152;21.052;2023-08-01T17:51:26;4.57;;;3.53;;
47539;SDS011;33280;52.152;21.052;2023-08-01T17:53:53;4.47;;;3.50;;
47539;SDS011;33280;52.152;21.052;2023-08-01T17:56:21;6.00;;;3.50;;
47539;SDS011;33280;52.152;21.052;2023-08-01T17:58:48;4.30;;;3.53;;
47539;SDS011;33280;52.152;21.052;2023-08-01T18:15:02;5.57;;;3.77;;
47539;SDS011;33280;52.152;21.052;2023-08-01T19:35:44;5.13;;;3.70;;
